Grand Lake, Colorado
Current Conditions -  °F | °C
As of 11:35 AM on Friday 28 Nov 2014 (Local Time) from K20V Reporting Station
Clear Clear  
Wind Chill: 52°   Ceiling: Unl
Heat Index: 52°   Visibility: 10mi
Dew Point: 10°   Wind: 5mph
Humidity: 19%   Direction: 230°SW
Pressure: 30.12"   Gusts: NA
Location:  40.25°N, 105.82°W
Report Text: K20V 281835Z AUTO 23004KT 10SM CLR 11/M12 A3012 RMK AO2
Loading
Personal Weather Stations






























Interactive Weather Map New forecast layout! Learn more

10-Day Weather Forecast

Advertisements
Track Severe Weather on mobile